Time;durP1;ratioP1;P1;durP2;ratioP2;P2;SDS_P1;SDS_P2;PMS_P1;PMS_P2;Temp;Humidity;BMP_temperature;BMP_pressure;BME280_temperature;BME280_humidity;BME280_pressure;Samples;Min_cycle;Max_cycle;Signal;HPM_P1;HPM_P2
2021/08/27 00:01:14;;;;;;;4.78;1.10;;;16.90;87.40;;;;;;6188091;23;20084;-82
2021/08/27 00:03:40;;;;;;;5.75;1.33;;;16.90;87.00;;;;;;6188752;23;20070;-81
2021/08/27 00:06:05;;;;;;;5.93;1.40;;;16.90;87.40;;;;;;6189189;23;20020;-81
2021/08/27 00:08:31;;;;;;;6.22;1.50;;;16.90;87.00;;;;;;6187601;23;20020;-82
2021/08/27 00:10:57;;;;;;;6.63;1.50;;;16.90;86.20;;;;;;6215666;23;20021;-82
2021/08/27 00:13:22;;;;;;;8.02;1.70;;;16.90;86.10;;;;;;6188400;23;20017;-82
2021/08/27 00:15:48;;;;;;;9.00;1.65;;;16.80;86.30;;;;;;6188545;23;20031;-82
2021/08/27 00:18:13;;;;;;;11.90;1.90;;;16.80;86.10;;;;;;6189063;23;20013;-82
2021/08/27 00:20:39;;;;;;;7.05;1.70;;;16.80;86.40;;;;;;6187925;23;20107;-82
2021/08/27 00:23:05;;;;;;;6.72;1.65;;;16.70;86.40;;;;;;6188883;23;20021;-82
2021/08/27 00:25:31;;;;;;;9.13;1.92;;;16.70;87.10;;;;;;6188533;23;20057;-82
2021/08/27 00:27:57;;;;;;;10.00;1.77;;;16.70;87.10;;;;;;6188101;23;20466;-82
2021/08/27 00:30:22;;;;;;;7.70;1.60;;;16.60;87.00;;;;;;6216000;23;20024;-81
2021/08/27 00:32:48;;;;;;;9.13;1.75;;;16.60;87.40;;;;;;6188603;23;20012;-81
2021/08/27 00:35:13;;;;;;;8.00;2.10;;;16.60;87.90;;;;;;6188332;23;20091;-82
2021/08/27 00:37:39;;;;;;;7.22;1.52;;;16.50;88.00;;;;;;6188594;23;20016;-82
2021/08/27 00:40:06;;;;;;;6.60;1.70;;;16.50;88.50;;;;;;6188385;23;20043;-81
2021/08/27 00:42:31;;;;;;;8.45;1.80;;;16.50;89.20;;;;;;6186836;23;20017;-81
2021/08/27 00:44:57;;;;;;;9.63;1.95;;;16.50;89.20;;;;;;6188318;23;20475;-80
2021/08/27 00:47:23;;;;;;;7.85;1.70;;;16.50;89.20;;;;;;6188220;23;20059;-81
2021/08/27 00:49:49;;;;;;;6.55;1.67;;;16.50;88.80;;;;;;6214217;23;20087;-82
2021/08/27 00:52:14;;;;;;;6.15;1.52;;;16.50;88.80;;;;;;6188886;23;20066;-82
2021/08/27 00:54:47;;;;;;;9.90;2.20;;;16.50;89.10;;;;;;6188539;23;20040;-82
2021/08/27 00:57:13;;;;;;;8.40;1.98;;;16.40;88.40;;;;;;6188154;23;20448;-82
2021/08/27 00:59:39;;;;;;;8.25;1.80;;;16.40;88.40;;;;;;6215344;23;20020;-82
2021/08/27 01:02:06;;;;;;;8.35;1.88;;;16.40;89.20;;;;;;6188674;23;20024;-82
2021/08/27 01:04:32;;;;;;;6.43;1.67;;;16.40;89.40;;;;;;6214305;23;20480;-82
2021/08/27 01:07:19;;;;;;;7.63;1.60;;;16.40;89.40;;;;;;6215511;23;20096;-82
2021/08/27 01:10:06;;;;;;;6.85;1.63;;;16.40;89.60;;;;;;6187640;23;20012;-82
2021/08/27 01:12:49;;;;;;;7.25;1.60;;;16.40;89.10;;;;;;6188567;23;20028;-82
2021/08/27 01:15:24;;;;;;;6.53;1.65;;;16.40;89.40;;;;;;6188625;23;20016;-82
2021/08/27 01:17:58;;;;;;;5.53;1.70;;;16.40;89.70;;;;;;6187632;23;20052;-82
2021/08/27 01:20:56;;;;;;;7.22;1.85;;;16.30;89.60;;;;;;6188903;23;20492;-82
2021/08/27 01:23:33;;;;;;;6.35;1.60;;;16.30;89.40;;;;;;6172896;23;20361;-82
2021/08/27 01:26:02;;;;;;;6.35;1.48;;;16.30;89.90;;;;;;6188314;23;20467;-82
2021/08/27 01:28:29;;;;;;;5.53;1.92;;;16.30;90.00;;;;;;6188601;23;20071;-82
2021/08/27 01:31:02;;;;;;;7.07;1.80;;;16.30;89.40;;;;;;6213591;23;20029;-82
2021/08/27 01:33:31;;;;;;;6.10;1.50;;;16.30;89.30;;;;;;6215348;23;20449;-81
2021/08/27 01:36:01;;;;;;;6.90;1.73;;;16.30;89.20;;;;;;6189322;23;20020;-82
2021/08/27 01:38:31;;;;;;;6.20;1.90;;;16.30;89.00;;;;;;6214950;23;20448;-82
2021/08/27 01:40:57;;;;;;;5.40;1.40;;;16.30;89.00;;;;;;6217814;23;20032;-81
2021/08/27 01:43:25;;;;;;;8.13;1.45;;;16.30;88.20;;;;;;6217533;23;20031;-82
2021/08/27 01:45:56;;;;;;;6.88;1.75;;;16.20;89.00;;;;;;6216218;23;20032;-81
2021/08/27 01:48:24;;;;;;;6.10;1.70;;;16.20;89.30;;;;;;6217487;23;20021;-81
2021/08/27 01:50:54;;;;;;;4.88;1.40;;;16.20;89.50;;;;;;6189888;23;20020;-81
2021/08/27 01:53:24;;;;;;;6.43;1.75;;;16.20;89.80;;;;;;6189549;23;20078;-81
2021/08/27 01:55:50;;;;;;;7.07;1.67;;;16.20;89.90;;;;;;6216855;23;20385;-81
2021/08/27 01:58:16;;;;;;;6.10;1.63;;;16.20;89.30;;;;;;6216634;23;20017;-82
2021/08/27 02:00:43;;;;;;;7.60;1.70;;;16.20;90.00;;;;;;6188777;23;20016;-82
2021/08/27 02:03:10;;;;;;;9.25;1.60;;;16.20;90.00;;;;;;6217181;23;20020;-82
2021/08/27 02:05:36;;;;;;;5.30;1.25;;;16.20;89.20;;;;;;6216933;23;20017;-82
2021/08/27 02:08:03;;;;;;;4.80;1.60;;;16.10;88.90;;;;;;6215947;23;20437;-83
2021/08/27 02:10:30;;;;;;;7.35;1.60;;;16.20;89.60;;;;;;6190535;23;20017;-82
2021/08/27 02:12:56;;;;;;;6.50;1.60;;;16.20;90.00;;;;;;6215717;23;20380;-81
2021/08/27 02:15:23;;;;;;;6.35;1.52;;;16.20;90.10;;;;;;6189936;23;20020;-82
2021/08/27 02:17:49;;;;;;;10.32;2.20;;;16.10;90.20;;;;;;6189426;23;20035;-82
2021/08/27 02:20:16;;;;;;;8.95;2.10;;;16.10;90.00;;;;;;6216321;23;20009;-82
2021/08/27 02:22:46;;;;;;;7.72;1.88;;;16.10;89.90;;;;;;6216449;23;20024;-82
2021/08/27 02:25:17;;;;;;;7.78;1.98;;;16.10;89.60;;;;;;6216865;23;20012;-82
2021/08/27 02:27:46;;;;;;;5.63;1.58;;;16.10;89.10;;;;;;6188938;23;20027;-82
2021/08/27 02:30:14;;;;;;;10.35;1.95;;;16.00;89.60;;;;;;6189946;23;20020;-81
2021/08/27 02:32:41;;;;;;;8.05;1.80;;;16.00;89.30;;;;;;6190053;23;20017;-82
2021/08/27 02:35:09;;;;;;;6.80;1.70;;;16.00;89.50;;;;;;6189063;23;20024;-81
2021/08/27 02:37:38;;;;;;;5.75;1.70;;;16.00;89.20;;;;;;6189712;23;20027;-82
2021/08/27 02:40:05;;;;;;;7.10;1.63;;;16.00;89.60;;;;;;6189656;23;20115;-81
2021/08/27 02:42:31;;;;;;;5.20;1.50;;;16.00;89.30;;;;;;6189589;23;20027;-82
2021/08/27 02:44:59;;;;;;;9.55;2.20;;;16.00;89.50;;;;;;6189835;23;20020;-82
2021/08/27 02:47:25;;;;;;;7.03;1.70;;;16.00;89.10;;;;;;6189740;23;20021;-81
2021/08/27 02:49:51;;;;;;;6.38;1.65;;;15.90;89.40;;;;;;6188706;23;20372;-83
2021/08/27 02:52:32;;;;;;;5.97;1.70;;;16.00;89.00;;;;;;6189960;23;20024;-83
2021/08/27 02:55:07;;;;;;;10.00;2.13;;;15.90;89.40;;;;;;6190146;23;20016;-83
2021/08/27 02:58:10;;;;;;;9.38;1.70;;;15.90;89.40;;;;;;6189555;23;20071;-83
2021/08/27 03:00:50;;;;;;;9.73;1.93;;;15.90;89.20;;;;;;6189155;23;20356;-83
2021/08/27 03:03:17;;;;;;;8.45;2.00;;;15.80;89.30;;;;;;6188684;23;20572;-82
2021/08/27 03:05:44;;;;;;;8.75;1.75;;;15.80;89.70;;;;;;6189484;23;20437;-80
2021/08/27 03:08:18;;;;;;;8.52;1.60;;;15.80;90.30;;;;;;6189503;23;20468;-81
2021/08/27 03:10:52;;;;;;;6.20;1.60;;;15.80;89.90;;;;;;6188689;23;20024;-81
2021/08/27 03:13:34;;;;;;;6.63;1.85;;;15.70;89.70;;;;;;6216153;23;20021;-81
2021/08/27 03:16:03;;;;;;;6.90;1.75;;;15.70;89.80;;;;;;6189325;23;20013;-81
2021/08/27 03:18:42;;;;;;;6.70;1.60;;;15.60;90.10;;;;;;6215507;23;20016;-82
2021/08/27 03:21:26;;;;;;;4.93;1.50;;;15.60;90.20;;;;;;6188886;23;20020;-81
2021/08/27 03:23:54;;;;;;;7.18;1.55;;;15.60;90.10;;;;;;6188036;23;20449;-81
2021/08/27 03:26:22;;;;;;;4.90;1.20;;;15.50;90.30;;;;;;6216105;23;20424;-82
2021/08/27 03:28:53;;;;;;;6.30;1.58;;;15.50;90.40;;;;;;6189185;23;20021;-82
2021/08/27 03:31:22;;;;;;;7.10;1.42;;;15.50;90.30;;;;;;6188809;23;20017;-82
2021/08/27 03:33:49;;;;;;;7.82;1.88;;;15.50;90.40;;;;;;6215792;23;20030;-84
2021/08/27 03:36:15;;;;;;;7.82;1.67;;;15.50;90.30;;;;;;6189768;23;20013;-81
2021/08/27 03:38:41;;;;;;;7.43;1.95;;;15.50;90.30;;;;;;6188200;23;20047;-81
2021/08/27 03:41:07;;;;;;;6.82;1.90;;;15.40;90.40;;;;;;6189908;23;20016;-82
2021/08/27 03:43:34;;;;;;;8.00;1.70;;;15.40;90.40;;;;;;6188977;23;20023;-82
2021/08/27 03:46:01;;;;;;;8.05;1.60;;;15.40;90.60;;;;;;6189082;23;20095;-82
2021/08/27 03:48:28;;;;;;;7.18;1.42;;;15.40;90.60;;;;;;6189428;23;20020;-82
2021/08/27 03:50:54;;;;;;;6.57;1.60;;;15.40;90.80;;;;;;6188850;23;20044;-82
2021/08/27 03:53:22;;;;;;;4.72;1.50;;;15.40;90.70;;;;;;6214970;23;20405;-82
2021/08/27 03:55:50;;;;;;;8.35;1.65;;;15.40;90.70;;;;;;6188937;23;20345;-83
2021/08/27 03:58:18;;;;;;;7.93;1.95;;;15.40;90.70;;;;;;6216302;23;20016;-82
2021/08/27 04:00:45;;;;;;;8.05;1.98;;;15.40;90.80;;;;;;6187718;23;20021;-83
2021/08/27 04:03:12;;;;;;;6.45;1.58;;;15.40;91.00;;;;;;6189334;23;20024;-83
2021/08/27 04:05:38;;;;;;;6.60;1.52;;;15.40;91.20;;;;;;6214291;23;20020;-82
2021/08/27 04:08:03;;;;;;;8.43;1.73;;;15.40;91.30;;;;;;6189415;23;20026;-83
2021/08/27 04:10:29;;;;;;;6.72;1.75;;;15.40;91.40;;;;;;6188941;23;20384;-82
2021/08/27 04:12:55;;;;;;;7.35;1.63;;;15.40;91.30;;;;;;6214399;23;20024;-81
2021/08/27 04:15:23;;;;;;;10.88;2.17;;;15.40;91.40;;;;;;6189025;23;20039;-80
2021/08/27 04:17:48;;;;;;;9.20;1.92;;;15.40;91.50;;;;;;6188825;23;20411;-80
2021/08/27 04:20:14;;;;;;;8.30;1.80;;;15.40;91.80;;;;;;6215048;23;20044;-82
2021/08/27 04:22:40;;;;;;;7.57;1.60;;;15.40;91.70;;;;;;6215368;23;20453;-81
2021/08/27 04:25:06;;;;;;;9.45;1.80;;;15.40;91.70;;;;;;6188942;23;20020;-81
2021/08/27 04:27:32;;;;;;;9.63;1.90;;;15.40;91.70;;;;;;6187716;23;20062;-81
2021/08/27 04:29:58;;;;;;;13.27;2.13;;;15.30;91.90;;;;;;6188874;23;20016;-81
2021/08/27 04:32:24;;;;;;;8.85;1.90;;;15.30;92.00;;;;;;6188796;23;20088;-81
2021/08/27 04:34:50;;;;;;;8.32;1.98;;;15.30;92.10;;;;;;6214874;23;20009;-81
2021/08/27 04:37:15;;;;;;;8.25;1.95;;;15.30;92.20;;;;;;6215497;23;20013;-81
2021/08/27 04:39:41;;;;;;;6.85;1.73;;;15.30;92.10;;;;;;6188493;23;20024;-81
2021/08/27 04:42:06;;;;;;;6.50;1.50;;;15.30;91.90;;;;;;6187755;23;20012;-81
2021/08/27 04:44:32;;;;;;;7.10;1.83;;;15.30;91.60;;;;;;6188646;23;20020;-81
2021/08/27 04:46:58;;;;;;;9.55;2.05;;;15.30;91.50;;;;;;6188898;23;20009;-81
2021/08/27 04:49:23;;;;;;;5.95;1.63;;;15.30;91.80;;;;;;6187961;23;20131;-81
2021/08/27 04:51:50;;;;;;;9.65;1.95;;;15.30;91.80;;;;;;6188028;23;20025;-80
2021/08/27 04:54:15;;;;;;;6.35;1.52;;;15.30;91.70;;;;;;6188754;23;20341;-81
2021/08/27 04:56:41;;;;;;;5.28;1.85;;;15.30;91.50;;;;;;6187515;23;20020;-82
2021/08/27 04:59:07;;;;;;;6.25;1.70;;;15.30;91.30;;;;;;6188564;23;20463;-81
2021/08/27 05:01:32;;;;;;;6.32;1.60;;;15.30;91.10;;;;;;6215667;23;20052;-82
2021/08/27 05:03:58;;;;;;;6.40;1.80;;;15.30;91.20;;;;;;6188307;23;20023;-82
2021/08/27 05:06:24;;;;;;;7.22;1.70;;;15.30;91.30;;;;;;6188833;23;20027;-82
2021/08/27 05:08:50;;;;;;;6.75;1.48;;;15.30;91.40;;;;;;6187504;23;20063;-81
2021/08/27 05:11:15;;;;;;;6.90;1.70;;;15.40;91.50;;;;;;6189071;23;20047;-82
2021/08/27 05:13:41;;;;;;;4.10;1.35;;;15.40;91.40;;;;;;6216106;23;20111;-81
2021/08/27 05:16:06;;;;;;;6.82;1.70;;;15.40;91.40;;;;;;6216173;23;20059;-82
2021/08/27 05:18:32;;;;;;;7.50;1.40;;;15.40;91.40;;;;;;6217348;23;20020;-82
2021/08/27 05:20:58;;;;;;;6.60;1.60;;;15.40;91.40;;;;;;6190849;23;20103;-82
2021/08/27 05:23:23;;;;;;;7.03;1.85;;;15.40;91.20;;;;;;6189731;23;20058;-82
2021/08/27 05:25:49;;;;;;;5.30;1.60;;;15.40;91.40;;;;;;6190219;23;20013;-81
2021/08/27 05:28:15;;;;;;;8.27;1.60;;;15.40;91.30;;;;;;6217338;23;20104;-82
2021/08/27 05:30:40;;;;;;;6.60;1.67;;;15.40;91.40;;;;;;6189519;23;20409;-82
2021/08/27 05:33:06;;;;;;;4.35;1.40;;;15.40;91.30;;;;;;6190593;23;20024;-83
2021/08/27 05:35:32;;;;;;;9.45;1.88;;;15.40;91.10;;;;;;6190505;23;20024;-83
2021/08/27 05:37:57;;;;;;;5.90;1.52;;;15.40;91.20;;;;;;6216430;23;20016;-83
2021/08/27 05:40:23;;;;;;;7.55;1.80;;;15.40;91.30;;;;;;6190263;23;20017;-82
2021/08/27 05:42:49;;;;;;;5.78;1.42;;;15.30;91.20;;;;;;6190327;23;20055;-83
2021/08/27 05:45:15;;;;;;;8.05;2.00;;;15.40;91.10;;;;;;6216456;23;20421;-82
2021/08/27 05:47:42;;;;;;;9.85;1.83;;;15.40;91.40;;;;;;6190009;23;20408;-82
2021/08/27 05:50:09;;;;;;;8.38;1.70;;;15.40;91.40;;;;;;6217357;23;20048;-81
2021/08/27 05:52:35;;;;;;;7.25;2.00;;;15.40;91.20;;;;;;6188988;23;20027;-82
2021/08/27 05:55:00;;;;;;;10.00;1.58;;;15.40;90.90;;;;;;6190708;23;20345;-81
2021/08/27 05:57:26;;;;;;;8.13;1.73;;;15.40;91.00;;;;;;6190274;23;20016;-82
2021/08/27 05:59:52;;;;;;;5.82;1.38;;;15.40;91.00;;;;;;6188685;23;20013;-82
2021/08/27 06:02:19;;;;;;;10.55;2.00;;;15.40;90.80;;;;;;6189961;23;20047;-81
2021/08/27 06:04:45;;;;;;;8.23;2.13;;;15.30;90.90;;;;;;6190064;23;20067;-82
2021/08/27 06:07:10;;;;;;;6.93;1.50;;;15.40;91.00;;;;;;6189913;23;20016;-82
2021/08/27 06:09:36;;;;;;;11.57;2.20;;;15.40;91.20;;;;;;6217198;23;20017;-82
2021/08/27 06:12:02;;;;;;;7.35;2.13;;;15.40;91.20;;;;;;6189058;23;20020;-82
2021/08/27 06:14:27;;;;;;;10.45;2.10;;;15.40;91.30;;;;;;6190768;23;20012;-82
2021/08/27 06:16:53;;;;;;;10.30;2.00;;;15.40;91.20;;;;;;6189728;23;20020;-82
2021/08/27 06:19:18;;;;;;;7.82;1.63;;;15.40;91.40;;;;;;6215766;23;20024;-83
2021/08/27 06:21:44;;;;;;;8.98;2.20;;;15.40;91.50;;;;;;6189063;23;20021;-82
2021/08/27 06:24:09;;;;;;;8.68;2.15;;;15.40;91.70;;;;;;6188826;23;20017;-83
2021/08/27 06:26:35;;;;;;;8.85;1.77;;;15.40;91.80;;;;;;6187808;23;20031;-83
2021/08/27 06:29:03;;;;;;;12.00;2.00;;;15.50;91.90;;;;;;6188849;23;20095;-82
2021/08/27 06:31:29;;;;;;;8.15;2.00;;;15.50;91.90;;;;;;6188832;23;20091;-81
2021/08/27 06:33:54;;;;;;;7.20;2.00;;;15.50;92.00;;;;;;6189182;23;20328;-82
2021/08/27 06:36:20;;;;;;;7.57;1.90;;;15.50;92.00;;;;;;6215779;23;20027;-81
2021/08/27 06:38:46;;;;;;;9.77;1.90;;;15.50;91.90;;;;;;6188783;23;20429;-81
2021/08/27 06:41:11;;;;;;;7.03;1.80;;;15.50;91.80;;;;;;6214339;23;20111;-81
2021/08/27 06:43:41;;;;;;;10.25;2.08;;;15.50;91.90;;;;;;6188484;23;20017;-81
2021/08/27 06:46:10;;;;;;;8.57;2.10;;;15.60;92.20;;;;;;6188459;23;20017;-81
2021/08/27 06:48:36;;;;;;;11.90;2.05;;;15.60;92.10;;;;;;6214327;23;20066;-82
2021/08/27 06:51:03;;;;;;;8.65;1.80;;;15.60;92.10;;;;;;6188888;23;20095;-83
2021/08/27 06:53:28;;;;;;;8.05;1.75;;;15.70;91.90;;;;;;6189799;23;20016;-82
2021/08/27 06:55:54;;;;;;;15.00;2.45;;;15.70;91.90;;;;;;6187913;23;20005;-82
2021/08/27 06:58:19;;;;;;;8.35;1.70;;;15.70;92.10;;;;;;6214506;23;20761;-82
2021/08/27 07:00:45;;;;;;;10.85;1.90;;;15.70;92.00;;;;;;6215880;23;20095;-80
2021/08/27 07:03:11;;;;;;;11.98;2.28;;;15.70;92.10;;;;;;6188767;23;20017;-81
2021/08/27 07:05:37;;;;;;;11.10;2.00;;;15.70;92.50;;;;;;6216611;23;20310;-81
2021/08/27 07:08:03;;;;;;;8.95;1.80;;;15.80;92.30;;;;;;6190472;23;20062;-90
2021/08/27 07:10:29;;;;;;;10.75;2.03;;;15.80;92.10;;;;;;6195300;23;20068;-91
2021/08/27 07:12:55;;;;;;;9.35;1.88;;;15.80;92.50;;;;;;6192802;23;20043;-90
2021/08/27 07:15:21;;;;;;;11.32;2.20;;;15.80;92.60;;;;;;6216312;23;20017;-89
2021/08/27 07:17:47;;;;;;;11.35;2.22;;;15.80;92.80;;;;;;6191507;23;20017;-83
2021/08/27 07:20:13;;;;;;;14.18;2.40;;;15.90;93.10;;;;;;6189204;23;20051;-83
2021/08/27 07:22:41;;;;;;;6.13;1.58;;;15.90;93.00;;;;;;6215257;23;20720;-81
2021/08/27 07:25:07;;;;;;;9.40;1.85;;;15.90;92.80;;;;;;6189818;23;20020;-81
2021/08/27 07:27:32;;;;;;;11.10;1.90;;;16.00;92.80;;;;;;6188579;23;20116;-81
2021/08/27 07:29:58;;;;;;;8.68;1.50;;;16.00;92.90;;;;;;6214711;23;20445;-80
2021/08/27 07:32:23;;;;;;;10.18;1.92;;;16.00;92.90;;;;;;6214914;23;20445;-82
2021/08/27 07:34:50;;;;;;;12.52;2.08;;;16.10;93.10;;;;;;6189158;23;20432;-86
2021/08/27 07:37:16;;;;;;;10.88;1.80;;;16.10;93.20;;;;;;6215642;23;20341;-85
2021/08/27 07:39:41;;;;;;;11.93;2.05;;;16.20;93.20;;;;;;6216593;23;20179;-83
2021/08/27 07:42:08;;;;;;;8.52;1.85;;;16.30;93.30;;;;;;6215573;23;20012;-81
2021/08/27 07:44:34;;;;;;;13.07;2.05;;;16.30;92.90;;;;;;6188446;23;20040;-82
2021/08/27 07:47:00;;;;;;;13.45;1.92;;;16.30;92.60;;;;;;6215931;23;20440;-82
2021/08/27 07:49:26;;;;;;;14.73;2.05;;;16.30;92.60;;;;;;6188791;23;20013;-82
2021/08/27 07:51:53;;;;;;;9.82;1.83;;;16.40;92.70;;;;;;6214530;23;20404;-82
2021/08/27 07:54:19;;;;;;;9.95;1.83;;;16.40;92.70;;;;;;6215641;23;20012;-80
2021/08/27 07:56:44;;;;;;;12.32;1.60;;;16.40;92.60;;;;;;6215706;23;20025;-80
2021/08/27 07:59:10;;;;;;;6.75;1.58;;;16.40;92.50;;;;;;6188206;23;20344;-81
2021/08/27 08:01:35;;;;;;;7.75;1.50;;;16.40;92.40;;;;;;6215808;23;20483;-80
2021/08/27 08:04:02;;;;;;;8.63;1.60;;;16.30;92.40;;;;;;6215194;23;20107;-82
2021/08/27 08:06:28;;;;;;;6.72;1.52;;;16.30;92.40;;;;;;6214615;23;20081;-80
2021/08/27 08:08:53;;;;;;;6.85;1.60;;;16.30;92.40;;;;;;6188914;23;20016;-81
2021/08/27 08:11:19;;;;;;;4.63;1.20;;;16.30;92.50;;;;;;6216082;23;20441;-81
2021/08/27 08:13:44;;;;;;;8.10;1.23;;;16.20;92.40;;;;;;6188468;23;20009;-81
2021/08/27 08:16:11;;;;;;;7.55;1.67;;;16.20;92.50;;;;;;6189174;23;20094;-81
2021/08/27 08:18:37;;;;;;;10.85;1.70;;;16.20;92.70;;;;;;6187975;23;20020;-81
2021/08/27 08:21:04;;;;;;;5.18;1.40;;;16.20;92.80;;;;;;6215996;23;20329;-82
2021/08/27 08:23:30;;;;;;;6.78;1.55;;;16.20;92.90;;;;;;6188761;23;20026;-81
2021/08/27 08:25:57;;;;;;;8.75;1.50;;;16.20;92.90;;;;;;6187379;23;20396;-81
2021/08/27 08:28:23;;;;;;;8.45;1.83;;;16.30;93.00;;;;;;6188211;23;20028;-82
2021/08/27 08:30:49;;;;;;;6.95;1.92;;;16.30;93.10;;;;;;6188677;23;20017;-81
2021/08/27 08:33:15;;;;;;;8.30;1.75;;;16.30;93.00;;;;;;6215098;23;20021;-82
2021/08/27 08:35:40;;;;;;;9.20;1.77;;;16.30;93.00;;;;;;6188764;23;20028;-82
2021/08/27 08:38:06;;;;;;;5.68;1.55;;;16.40;93.00;;;;;;6215985;23;20096;-82
2021/08/27 08:40:38;;;;;;;8.10;1.80;;;16.40;93.10;;;;;;6214836;23;20095;-82
2021/08/27 08:43:03;;;;;;;8.02;1.60;;;16.40;93.00;;;;;;6189231;23;20079;-83
2021/08/27 08:45:30;;;;;;;8.65;1.80;;;16.50;92.90;;;;;;6189184;23;20321;-83
2021/08/27 08:47:57;;;;;;;8.55;1.95;;;16.50;93.00;;;;;;6190003;23;20016;-83
2021/08/27 08:50:23;;;;;;;11.35;1.67;;;16.60;93.10;;;;;;6191071;23;20043;-83
2021/08/27 08:52:49;;;;;;;7.50;1.77;;;16.60;93.00;;;;;;6190970;23;20021;-83
2021/08/27 08:55:15;;;;;;;9.50;2.00;;;16.70;93.10;;;;;;6190087;23;20023;-83
2021/08/27 08:57:41;;;;;;;10.30;2.00;;;16.80;93.10;;;;;;6190349;23;20020;-83
2021/08/27 09:00:07;;;;;;;8.52;1.80;;;16.90;93.10;;;;;;6191081;23;20344;-83
2021/08/27 09:02:32;;;;;;;13.23;2.22;;;17.00;93.00;;;;;;6189878;23;20020;-82
2021/08/27 09:04:58;;;;;;;13.75;2.70;;;17.10;92.70;;;;;;6190912;23;20020;-81
2021/08/27 09:07:24;;;;;;;12.07;2.22;;;17.20;92.50;;;;;;6218018;23;20020;-82
2021/08/27 09:09:50;;;;;;;11.30;2.67;;;17.20;92.40;;;;;;6189653;23;20540;-80
2021/08/27 09:12:26;;;;;;;6.63;1.55;;;17.30;92.90;;;;;;6190427;23;20025;-81
2021/08/27 09:15:07;;;;;;;7.85;2.53;;;17.30;92.50;;;;;;6216540;23;20019;-81
2021/08/27 09:18:03;;;;;;;13.10;2.72;;;17.40;92.30;;;;;;6217361;23;20112;-81
2021/08/27 09:20:28;;;;;;;10.57;2.30;;;17.30;91.90;;;;;;6189526;23;20103;-81
2021/08/27 09:22:59;;;;;;;8.57;2.03;;;17.40;91.90;;;;;;6216363;23;20072;-82
2021/08/27 09:25:39;;;;;;;14.18;2.67;;;17.30;91.70;;;;;;6218200;23;20019;-81
2021/08/27 09:28:17;;;;;;;7.88;2.13;;;17.30;91.60;;;;;;6190302;23;20020;-81
2021/08/27 09:30:58;;;;;;;15.85;2.65;;;17.30;91.60;;;;;;6189123;23;20023;-80
2021/08/27 09:33:33;;;;;;;9.25;1.90;;;17.30;91.20;;;;;;6190447;23;20104;-80
2021/08/27 09:36:04;;;;;;;11.32;2.47;;;17.40;91.30;;;;;;6216648;23;20016;-79
2021/08/27 09:38:36;;;;;;;8.77;2.10;;;17.40;91.10;;;;;;6190366;23;20044;-81
2021/08/27 09:41:13;;;;;;;10.43;2.20;;;17.40;91.20;;;;;;6190180;23;20035;-81
2021/08/27 09:43:50;;;;;;;14.27;2.25;;;17.50;90.80;;;;;;6188790;23;20020;-81
2021/08/27 09:46:31;;;;;;;8.40;2.10;;;17.50;90.70;;;;;;6217001;23;20441;-81
2021/08/27 09:48:57;;;;;;;13.15;2.60;;;17.60;90.10;;;;;;6190403;23;20021;-81
2021/08/27 09:51:46;;;;;;;11.85;2.45;;;17.60;90.30;;;;;;6189154;23;20417;-81
2021/08/27 09:54:23;;;;;;;11.55;2.83;;;17.70;90.40;;;;;;6217252;23;20016;-80
2021/08/27 09:56:52;;;;;;;12.40;2.60;;;17.80;90.00;;;;;;6190217;23;19996;-81
2021/08/27 09:59:18;;;;;;;9.43;2.13;;;17.90;89.20;;;;;;6189000;23;20019;-81
2021/08/27 10:01:48;;;;;;;9.45;2.20;;;17.90;88.70;;;;;;6189697;23;20096;-81
2021/08/27 10:04:14;;;;;;;11.85;2.40;;;18.00;88.20;;;;;;6189473;23;20024;-81
2021/08/27 10:06:40;;;;;;;9.93;2.25;;;18.00;88.30;;;;;;6216719;23;20083;-81
2021/08/27 10:09:06;;;;;;;9.27;1.92;;;18.00;88.90;;;;;;6216779;23;20114;-80
2021/08/27 10:11:32;;;;;;;10.50;2.38;;;18.10;88.50;;;;;;6188941;23;20020;-81
2021/08/27 10:13:58;;;;;;;8.38;2.00;;;18.10;87.40;;;;;;6190240;23;20019;-80
2021/08/27 10:16:25;;;;;;;8.60;1.92;;;18.20;87.40;;;;;;6189984;23;20052;-82
2021/08/27 10:18:50;;;;;;;10.00;2.25;;;18.20;86.80;;;;;;6189023;23;20023;-82
2021/08/27 10:21:16;;;;;;;9.55;2.22;;;18.20;85.80;;;;;;6189857;23;20095;-81
2021/08/27 10:23:44;;;;;;;9.80;2.38;;;18.30;86.40;;;;;;6216678;23;20027;-81
2021/08/27 10:26:21;;;;;;;8.73;2.10;;;18.30;86.20;;;;;;6189144;23;20337;-82
2021/08/27 10:28:48;;;;;;;10.52;2.47;;;18.20;85.50;;;;;;6189845;23;20441;-82
2021/08/27 10:31:14;;;;;;;14.50;2.20;;;18.30;86.50;;;;;;6190330;23;20017;-82
2021/08/27 10:33:40;;;;;;;8.55;2.30;;;18.30;86.70;;;;;;6188680;23;20012;-81
2021/08/27 10:36:07;;;;;;;8.73;2.22;;;18.30;86.30;;;;;;6190264;23;20021;-81
2021/08/27 10:38:47;;;;;;;7.63;2.03;;;18.30;85.70;;;;;;6189944;23;20028;-82
2021/08/27 10:41:32;;;;;;;9.70;2.20;;;18.30;85.00;;;;;;6215323;23;20040;-83
2021/08/27 10:44:06;;;;;;;9.57;2.50;;;18.40;84.70;;;;;;6217352;23;20013;-83
2021/08/27 10:46:46;;;;;;;10.02;2.13;;;18.40;85.00;;;;;;6186091;23;20031;-83
2021/08/27 10:49:14;;;;;;;7.22;2.00;;;18.40;85.10;;;;;;6189703;23;20360;-82
2021/08/27 10:51:46;;;;;;;7.47;1.83;;;18.50;85.20;;;;;;6189098;23;20092;-83
2021/08/27 10:54:13;;;;;;;9.30;1.80;;;18.40;83.60;;;;;;6188512;23;20445;-82
2021/08/27 10:56:44;;;;;;;11.50;1.98;;;18.40;83.50;;;;;;6216002;23;20023;-81
2021/08/27 10:59:11;;;;;;;8.90;1.98;;;18.40;83.30;;;;;;6189949;23;20044;-82
2021/08/27 11:01:39;;;;;;;9.73;2.10;;;18.40;83.80;;;;;;6188089;23;20017;-84
2021/08/27 11:04:23;;;;;;;10.32;1.98;;;18.40;84.40;;;;;;6216253;23;20016;-82
2021/08/27 11:06:58;;;;;;;7.15;1.60;;;18.40;84.70;;;;;;6189135;23;20024;-83
2021/08/27 11:09:26;;;;;;;8.55;2.00;;;18.40;84.10;;;;;;6189086;23;20008;-83
2021/08/27 11:12:24;;;;;;;8.48;1.90;;;18.40;83.50;;;;;;6188462;23;20418;-83
2021/08/27 11:14:55;;;;;;;11.52;1.90;;;18.50;82.50;;;;;;6188144;23;20021;-86
2021/08/27 11:17:21;;;;;;;6.95;1.75;;;18.60;82.30;;;;;;6190302;23;20032;-84
2021/08/27 11:19:59;;;;;;;12.00;2.10;;;18.60;82.10;;;;;;6189223;23;20043;-84
2021/08/27 11:22:30;;;;;;;7.95;1.88;;;18.60;82.10;;;;;;6215379;23;20017;-84
2021/08/27 11:25:06;;;;;;;11.15;2.17;;;18.70;82.00;;;;;;6216331;23;20013;-83
2021/08/27 11:27:32;;;;;;;7.20;1.92;;;18.70;82.40;;;;;;6189057;23;20021;-84
2021/08/27 11:30:01;;;;;;;11.18;2.20;;;18.70;83.50;;;;;;6188415;23;20083;-82
2021/08/27 11:32:26;;;;;;;9.57;2.03;;;18.80;84.60;;;;;;6189115;23;20028;-80
2021/08/27 11:34:57;;;;;;;8.75;2.35;;;18.80;85.10;;;;;;6189065;23;20096;-82
2021/08/27 11:37:25;;;;;;;8.80;2.15;;;18.80;85.80;;;;;;6214826;23;20020;-82
2021/08/27 11:39:51;;;;;;;7.82;2.05;;;18.90;85.80;;;;;;6188815;23;20364;-84
2021/08/27 11:42:19;;;;;;;10.40;2.50;;;18.80;86.80;;;;;;6217397;23;20012;-84
2021/08/27 11:44:54;;;;;;;9.27;2.10;;;18.80;86.40;;;;;;6187465;23;20099;-82
2021/08/27 11:47:20;;;;;;;10.90;2.35;;;18.80;86.90;;;;;;6188814;23;20013;-82
2021/08/27 11:49:58;;;;;;;14.80;2.53;;;18.80;86.40;;;;;;6215170;23;20043;-83
2021/08/27 11:52:28;;;;;;;12.85;2.40;;;18.70;85.40;;;;;;6190367;23;20020;-84
2021/08/27 11:55:08;;;;;;;9.05;2.03;;;18.70;85.40;;;;;;6189549;23;20083;-84
2021/08/27 11:57:35;;;;;;;13.35;2.30;;;18.50;85.30;;;;;;6214780;23;20026;-84
2021/08/27 12:00:10;;;;;;;8.98;1.95;;;18.50;86.30;;;;;;6190273;23;20040;-84
2021/08/27 12:02:36;;;;;;;11.70;2.47;;;18.50;86.80;;;;;;6215787;23;20024;-84
2021/08/27 12:05:05;;;;;;;10.68;2.20;;;18.50;87.00;;;;;;6189010;23;20016;-86
2021/08/27 12:07:31;;;;;;;9.90;2.50;;;18.50;87.50;;;;;;6216161;23;20017;-85
2021/08/27 12:10:13;;;;;;;10.55;2.20;;;18.50;86.40;;;;;;6189425;23;20016;-83
2021/08/27 12:12:41;;;;;;;8.52;1.90;;;18.60;85.30;;;;;;6215418;23;20079;-85
2021/08/27 12:15:11;;;;;;;9.93;2.38;;;18.60;85.30;;;;;;6216080;23;20032;-83
2021/08/27 12:17:39;;;;;;;12.00;2.10;;;18.60;85.20;;;;;;6215903;23;20019;-84
2021/08/27 12:20:09;;;;;;;10.45;2.15;;;18.60;85.20;;;;;;6215634;23;20012;-84
2021/08/27 12:22:43;;;;;;;9.88;2.30;;;18.60;84.90;;;;;;6188958;23;20031;-83
2021/08/27 12:25:10;;;;;;;9.68;2.00;;;18.70;85.60;;;;;;6189289;23;20126;-82
2021/08/27 12:27:47;;;;;;;9.45;2.25;;;18.80;85.30;;;;;;6215517;23;20017;-84
2021/08/27 12:30:13;;;;;;;8.40;2.20;;;18.80;85.60;;;;;;6216498;23;20016;-86
2021/08/27 12:32:42;;;;;;;8.18;1.70;;;18.90;86.00;;;;;;6188087;23;20393;-86
2021/08/27 12:35:09;;;;;;;9.88;2.40;;;18.90;84.30;;;;;;6188714;23;20457;-84
2021/08/27 12:37:39;;;;;;;8.10;2.20;;;18.90;83.90;;;;;;6215536;23;20048;-84
2021/08/27 12:40:08;;;;;;;10.02;2.10;;;18.90;84.20;;;;;;6214951;23;20023;-85
2021/08/27 12:42:33;;;;;;;11.38;2.35;;;18.90;84.50;;;;;;6189486;23;20017;-86
2021/08/27 12:45:06;;;;;;;7.55;1.75;;;18.90;83.90;;;;;;6216174;23;20100;-85
2021/08/27 12:47:37;;;;;;;10.40;2.03;;;19.00;83.10;;;;;;6188320;23;20111;-83
2021/08/27 12:50:09;;;;;;;10.15;1.90;;;19.00;83.70;;;;;;6215473;23;20067;-83
2021/08/27 12:52:36;;;;;;;9.00;1.85;;;19.00;83.10;;;;;;6188810;23;20027;-83